Powells Crossroads, Tennessee
Current Conditions -  °F | °C
As of 10:53 PM on Friday 28 Nov 2014 (Local Time) from KCHA Reporting Station
Clear Clear  
Wind Chill: 33°   Ceiling: Unl
Heat Index: 33°   Visibility: 10mi
Dew Point: 23°   Wind: 0mph
Humidity: 66%   Direction: NA
Pressure: 30.25"   Gusts: NA
Location:  35.1929°N, 85.5025°W
Report Text: KCHA 290453Z 00000KT 10SM CLR 01/M05 A3025 RMK AO2 SLP247 LAST T00061050 400831033
Loading
Personal Weather Stations






























Interactive Weather Map New forecast layout! Learn more

10-Day Weather Forecast

Advertisements
Track Severe Weather on mobile